Home > Products > Valid Products > TAF

000
FTUS46 KMTR 312300
TAFSNS
TAF
KSNS 312322Z 0100/0124 27018G24KT P6SM SKC
     FM010300 27012G18KT P6SM SKC
     FM010700 29003KT P6SM FEW010
     FM011800 30017G22KT P6SM FEW150=



000
FTUS46 KMTR 312300
TAFSFO
TAF
KSFO 312322Z 0100/0206 28030G39KT P6SM FEW020
     FM010400 29022G28KT P6SM SKC
     FM011000 28012KT P6SM FEW250
     FM012000 28017G27KT P6SM FEW020 SCT150
     FM020400 29017KT P6SM SKC=



000
FTUS46 KMTR 312300
TAFOAK
TAF
KOAK 312322Z 0100/0206 29015G27KT P6SM FEW012
     FM010400 30012KT P6SM SKC
     FM010700 30006KT P6SM FEW250
     FM012100 28015G22KT P6SM FEW020 SCT150
     FM020300 28009KT P6SM FEW015=



000
FTUS46 KMTR 312300
TAFSTS
TAF
KSTS 312322Z 0100/0124 32018G24KT P6SM FEW040
     FM010600 33008KT P6SM FEW250
     FM011900 34012KT P6SM FEW150=



000
FTUS46 KMTR 312300
TAFMRY
TAF
KMRY 312322Z 0100/0124 27016G24KT P6SM SKC
     FM010200 26011G18KT P6SM SKC
     FM010800 25008KT P6SM FEW010
     FM011800 29012KT P6SM FEW150=



000
FTUS46 KMTR 312300
TAFLVK
TAF
KLVK 312322Z 0100/0124 24015G19KT P6SM SKC
     FM010600 30006KT P6SM SKC
     FM011800 25012KT P6SM FEW150=



000
FTUS46 KMTR 312300
TAFSJC
TAF
KSJC 312322Z 0100/0124 31017G27KT P6SM FEW040
     FM010300 31016KT P6SM SKC
     FM010600 31007KT P6SM SKC
     FM011800 32017G22KT P6SM FEW150=



000
FTUS46 KMTR 312100 AAA
TAFSFO
TAF AMD
KSFO 312110Z 3121/0124 28024G34KT P6SM FEW030
     FM312300 28030G39KT P6SM SKC
     FM010400 29022G28KT P6SM FEW012
     FM011000 28012KT P6SM FEW010
     FM012000 28017KT P6SM FEW020=



000
FTUS46 KMTR 311700
TAFSTS
TAF
KSTS 311720Z 3118/0118 32012G18KT P6SM FEW025
     FM312100 32018G24KT P6SM SKC
     FM010300 32014G20KT P6SM SKC
     FM010600 33008KT P6SM SKC=



000
FTUS46 KMTR 311700
TAFMRY
TAF
KMRY 311720Z 3118/0118 VRB04KT P6SM FEW007
     FM311900 27016G22KT P6SM FEW007
     FM010200 26011G18KT P6SM SKC
     FM010800 25008KT P6SM FEW010=



000
FTUS46 KMTR 311700
TAFSJC
TAF
KSJC 311720Z 3118/0118 27015KT P6SM FEW015 SCT030
     FM312100 31022G30KT P6SM FEW025
     FM010300 31012G20KT P6SM SKC
     FM010600 VRB03KT P6SM FEW015=



000
FTUS46 KMTR 311700
TAFOAK
TAF
KOAK 311720Z 3118/0124 27014KT P6SM FEW010
     FM311900 29015G22KT P6SM FEW015
     FM312200 29022G30KT P6SM FEW018
     FM010400 30012KT P6SM FEW015
     FM010700 30006KT P6SM FEW012
     FM012100 28015KT P6SM FEW020=



000
FTUS46 KMTR 311700
TAFSNS
TAF
KSNS 311720Z 3118/0118 29006KT P6SM SCT020
     FM312100 28018G24KT P6SM SKC
     FM010300 29012G18KT P6SM SKC
     FM010700 29003KT P6SM SKC=



000
FTUS46 KMTR 311700
TAFSFO
TAF
KSFO 311720Z 3118/0124 27020KT P6SM FEW009
     FM312100 28026G34KT P6SM FEW018 FEW250
     FM312300 28030G39KT P6SM SKC
     FM010400 29022G28KT P6SM FEW012
     FM011000 28012KT P6SM FEW010
     FM012000 28017KT P6SM FEW020=



000
FTUS46 KMTR 311700
TAFSTS
TAF
KSTS 311720Z 3118/0118 32012G18KT P6SM FEW025
     FM312100 32018G24KT P6SM SKC
     FM010300 32014G20KT P6SM SKC
     FM010600 33008KT P6SM SKC=



000
FTUS46 KMTR 311700
TAFLVK
TAF
KLVK 311720Z 3118/0118 26015G19KT P6SM FEW020
     FM010600 30006KT P6SM SKC
     FM011000 25008KT P6SM SKC=



000
FTUS46 KMTR 311700
TAFMRY
TAF
KMRY 311720Z 3118/0118 VRB04KT P6SM FEW007
     FM311900 27016G22KT P6SM FEW007
     FM010200 26011G18KT P6SM SKC
     FM010800 25008KT P6SM FEW010=



000
FTUS46 KMTR 311700
TAFSJC
TAF
KSJC 311720Z 3118/0118 27015KT P6SM FEW015 SCT030
     FM312100 31022G30KT P6SM FEW025
     FM010300 31012G20KT P6SM SKC
     FM010600 VRB03KT P6SM FEW015=



000
FTUS46 KMTR 311700
TAFOAK
TAF
KOAK 311720Z 3118/0124 27014KT P6SM FEW010
     FM311900 29015G22KT P6SM FEW015
     FM312200 29022G30KT P6SM FEW018
     FM010400 30012KT P6SM FEW015
     FM010700 30006KT P6SM FEW012
     FM012100 28015KT P6SM FEW020=



000
FTUS46 KMTR 311700
TAFSNS
TAF
KSNS 311720Z 3118/0118 29006KT P6SM SCT020
     FM312100 28018G24KT P6SM SKC
     FM010300 29012G18KT P6SM SKC
     FM010700 29003KT P6SM SKC=



000
FTUS46 KMTR 311700
TAFSFO
TAF
KSFO 311720Z 3118/0124 27020KT P6SM FEW009
     FM312100 28026G34KT P6SM FEW018 FEW250
     FM312300 28030G39KT P6SM SKC
     FM010400 29022G28KT P6SM FEW012
     FM011000 28012KT P6SM FEW010
     FM012000 28017KT P6SM FEW020=



000
FTUS46 KMTR 311700
TAFLVK
TAF
KLVK 311720Z 3118/0118 26015G19KT P6SM FEW020
     FM010600 30006KT P6SM SKC
     FM011000 25008KT P6SM SKC=



000
FTUS46 KMTR 311600 AAB
TAFSFO
TAF AMD
KSFO 311626Z 3116/0118 28020KT P6SM FEW009
     FM311700 27020G26KT P6SM FEW015
     FM312100 28026G34KT P6SM FEW018 FEW250
     FM312300 28032G39KT P6SM SKC
     FM010400 29022G28KT P6SM FEW012
     FM011000 28012KT P6SM FEW010=



000
FTUS46 KMTR 311600 AAA
TAFLVK
TAF AMD
KLVK 311625Z 3116/0112 24008KT P6SM BKN020
     FM311700 26015G19KT P6SM SKC
     FM010600 30006KT P6SM SKC=



000
FTUS46 KMTR 311500 AAA
TAFSFO
TAF AMD
KSFO 311504Z 3115/0118 27016G22KT P6SM OVC012
     FM311700 27020G26KT P6SM SCT015 SCT250
     FM312100 28026G34KT P6SM FEW018 FEW250
     FM312300 28032G39KT P6SM SKC
     FM010400 29022G28KT P6SM FEW012
     FM011000 28012KT P6SM FEW010=



000
FTUS46 KMTR 311500 AAA
TAFSFO
TAF AMD
KSFO 311504Z 3115/0118 27016G22KT P6SM OVC012
     FM311700 27020G26KT P6SM SCT015 SCT250
     FM312100 28026G34KT P6SM FEW018 FEW250
     FM312300 28032G39KT P6SM SKC
     FM010400 29022G28KT P6SM FEW012
     FM011000 28012KT P6SM FEW010=



000
FTUS46 KMTR 311400 AAA
TAFSNS
TAF AMD
KSNS 311452Z 3115/0112 35004KT P6SM FEW015
     FM311700 28006KT P6SM SKC
     FM312100 28018G24KT P6SM SKC
     FM010300 29012G18KT P6SM SKC
     FM010700 29003KT P6SM SKC=



000
FTUS46 KMTR 311400 AAA
TAFOAK
TAF AMD
KOAK 311451Z 3115/0118 27016KT P6SM FEW010
     FM311700 29015G22KT P6SM FEW015 SCT250
     FM312100 29022G30KT P6SM FEW018 FEW250
     FM010400 30012KT P6SM FEW015
     FM010700 30006KT P6SM FEW012=



000
FTUS46 KMTR 311400 AAA
TAFSJC
TAF AMD
KSJC 311451Z 3115/0112 23003KT P6SM FEW011
     FM311700 30011KT P6SM FEW015
     FM311800 31015G22KT P6SM FEW015 FEW250
     FM312100 31022G30KT P6SM FEW025
     FM010300 31012G20KT P6SM SKC
     FM010600 VRB03KT P6SM FEW015=



000
FTUS46 KMTR 311400 AAA
TAFSJC
TAF AMD
KSJC 311451Z 3115/0112 23003KT P6SM FEW011
     FM311700 30011KT P6SM FEW015
     FM311800 31015G22KT P6SM FEW015 FEW250
     FM312100 31022G30KT P6SM FEW025
     FM010300 31012G20KT P6SM SKC
     FM010600 VRB03KT P6SM FEW015=



000
FTUS46 KMTR 311400 AAA
TAFMRY
TAF AMD
KMRY 311450Z 3115/0112 12004KT P6SM SCT007
     FM311800 27016G22KT P6SM FEW008
     FM010200 26011G18KT P6SM SKC
     FM010800 25008KT P6SM FEW010=



000
FTUS46 KMTR 311400 AAA
TAFMRY
TAF AMD
KMRY 311450Z 3115/0112 12004KT P6SM SCT007
     FM311800 27016G22KT P6SM FEW008
     FM010200 26011G18KT P6SM SKC
     FM010800 25008KT P6SM FEW010=



000
FTUS46 KMTR 311100
TAFOAK
TAF
KOAK 311131Z 3112/0118 29013KT P6SM BKN012 BKN200
     FM311700 29015G22KT P6SM SCT015 SCT250
     FM312100 29022G30KT P6SM FEW018 FEW250
     FM010400 30012KT P6SM FEW015
     FM010700 30006KT P6SM FEW012=



000
FTUS46 KMTR 311100
TAFSFO
TAF
KSFO 311131Z 3112/0118 27016G22KT P6SM OVC012
     FM311700 27020G26KT P6SM SCT015 SCT250
     FM312100 28026G34KT P6SM FEW018 FEW250
     FM312300 28032G39KT P6SM SKC
     FM010400 29022G28KT P6SM FEW012
     FM011000 28012KT P6SM FEW010=



000
FTUS46 KMTR 311100
TAFMRY
TAF
KMRY 311131Z 3112/0112 21006KT P6SM FEW009 FEW250
     FM311400 22006KT P6SM BKN007
      TEMPO 3114/3118 2SM BR OVC003
     FM311800 27016G22KT P6SM FEW008
     FM010200 26011G18KT P6SM SKC
     FM010800 25008KT P6SM FEW010=



000
FTUS46 KMTR 311100
TAFSNS
TAF
KSNS 311131Z 3112/0112 32004KT P6SM FEW012 FEW250
      TEMPO 3113/3117 BKN010
     FM311700 28006KT P6SM SKC
     FM312100 28018G24KT P6SM SKC
     FM010300 29012G18KT P6SM SKC
     FM010700 29003KT P6SM SKC=



000
FTUS46 KMTR 311100
TAFSTS
TAF
KSTS 311131Z 3112/0112 VRB03KT P6SM FEW015 SCT250
     FM311700 32012G18KT P6SM FEW250
     FM312100 32018G24KT P6SM SKC
     FM010300 32014G20KT P6SM SKC
     FM010600 33008G15KT P6SM SKC=



000
FTUS46 KMTR 311100
TAFSJC
TAF
KSJC 311131Z 3112/0112 VRB04KT P6SM SCT012 BKN250
      TEMPO 3113/3117 BKN012
     FM311700 30011KT P6SM SCT014
     FM311800 31015G22KT P6SM FEW015 FEW250
     FM312100 31022G30KT P6SM FEW025
     FM010300 31012G20KT P6SM SKC
     FM010600 VRB03KT P6SM FEW015=



000
FTUS46 KMTR 311100
TAFLVK
TAF
KLVK 311131Z 3112/0112 24009G15KT P6SM FEW010 FEW250
     FM311700 26015G19KT P6SM SKC
     FM010600 30006KT P6SM SKC=



000
FTUS46 KMTR 310900 AAA
TAFSFO
TAF AMD
KSFO 310910Z 3109/0112 27018G24KT P6SM SCT010 BKN250
     FM311200 27016G22KT P6SM BKN016
     FM311700 27020G26KT P6SM FEW020 SCT250
     FM312100 28025G34KT P6SM FEW020
     FM010400 29018G22KT P6SM SKC=



000
FTUS46 KMTR 310900 AAA
TAFSFO
TAF AMD
KSFO 310910Z 3109/0112 27018G24KT P6SM SCT010 BKN250
     FM311200 27016G22KT P6SM BKN016
     FM311700 27020G26KT P6SM FEW020 SCT250
     FM312100 28025G34KT P6SM FEW020
     FM010400 29018G22KT P6SM SKC=



000
FTUS46 KMTR 310500 RRA
TAFSJC
TAF
KSJC 310541Z 3106/0106 30008KT P6SM SCT250
     FM311000 VRB03KT P6SM SCT012 BKN250
     FM311800 31015G22KT P6SM FEW250
     FM010300 31009KT P6SM SKC=



000
FTUS46 KMTR 310500 RRA
TAFOAK
TAF
KOAK 310541Z 3106/0112 27012KT P6SM SCT250
     FM310900 28009KT P6SM SCT012
      TEMPO 3112/3116 BKN012
     FM311800 27017G25KT P6SM FEW015 SCT250
     FM010400 27017KT P6SM FEW015=



000
FTUS46 KMTR 310500 RRA
TAFSNS
TAF
KSNS 310541Z 3106/0106 29010KT P6SM FEW250
     FM311000 29004KT P6SM SCT012
      TEMPO 3112/3116 BKN010
     FM311800 29017G24KT P6SM FEW250
     FM010300 29017KT P6SM SKC=



000
FTUS46 KMTR 310500 RRA
TAFSFO
TAF
KSFO 310541Z 3106/0112 27015G25KT P6SM FEW250
     FM311200 27015G19KT P6SM BKN017 OVC250
     FM311700 27017G22KT P6SM FEW020 SCT250
     FM312100 28019G30KT P6SM FEW020
     FM010400 29018G22KT P6SM SKC=



000
FTUS46 KMTR 310500 RRA
TAFMRY
TAF
KMRY 310541Z 3106/0106 25007KT P6SM FEW011 SCT250
     FM311800 27016G22KT P6SM FEW250
     FM010200 24007KT P6SM SKC=



000
FTUS46 KMTR 310500 RRA
TAFLVK
TAF
KLVK 310541Z 3106/0106 26009KT P6SM FEW250
     FM310900 VRB03KT P6SM FEW010 SCT250
     FM311700 26015G19KT P6SM FEW250
     FM010300 34009KT P6SM SKC=



000
FTUS46 KMTR 310500 RRA
TAFSTS
TAF
KSTS 310541Z 3106/0106 31006KT P6SM FEW250
     FM311000 VRB03KT P6SM FEW250
     FM311700 32012KT P6SM SKC
     FM010300 30007KT P6SM SKC=



000
FTUS46 KMTR 310500 RRA
TAFMRY
TAF
KMRY 310541Z 3106/0106 25007KT P6SM FEW011 SCT250
     FM311800 27016G22KT P6SM FEW250
     FM010200 24007KT P6SM SKC=



000
FTUS46 KMTR 310500 RRA
TAFSFO
TAF
KSFO 310541Z 3106/0112 27015G25KT P6SM FEW250
     FM311200 27015G19KT P6SM BKN017 OVC250
     FM311700 27017G22KT P6SM FEW020 SCT250
     FM312100 28019G30KT P6SM FEW020
     FM010400 29018G22KT P6SM SKC=



000
FTUS46 KMTR 310500 RRA
TAFOAK
TAF
KOAK 310541Z 3106/0112 27012KT P6SM SCT250
     FM310900 28009KT P6SM SCT012
      TEMPO 3112/3116 BKN012
     FM311800 27017G25KT P6SM FEW015 SCT250
     FM010400 27017KT P6SM FEW015=



000
FTUS46 KMTR 310500 RRA
TAFSJC
TAF
KSJC 310541Z 3106/0106 30008KT P6SM SCT250
     FM311000 VRB03KT P6SM SCT012 BKN250
     FM311800 31015G22KT P6SM FEW250
     FM010300 31009KT P6SM SKC=



000
FTUS46 KMTR 310500 RRA
TAFSTS
TAF
KSTS 310541Z 3106/0106 31006KT P6SM FEW250
     FM311000 VRB03KT P6SM FEW250
     FM311700 32012KT P6SM SKC
     FM010300 30007KT P6SM SKC=



000
FTUS46 KMTR 310500 RRA
TAFSNS
TAF
KSNS 310541Z 3106/0106 29010KT P6SM FEW250
     FM311000 29004KT P6SM SCT012
      TEMPO 3112/3116 BKN010
     FM311800 29017G24KT P6SM FEW250
     FM010300 29017KT P6SM SKC=



000
FTUS46 KMTR 310500 RRA
TAFLVK
TAF
KLVK 310541Z 3106/0106 26009KT P6SM FEW250
     FM310900 VRB03KT P6SM FEW010 SCT250
     FM311700 26015G19KT P6SM FEW250
     FM010300 34009KT P6SM SKC=



000
FTUS46 KMTR 310300 AAA
TAFSFO
TAF AMD
KSFO 310302Z 3103/0106 28025G30KT P6SM FEW250
     FM310400 27015G22KT P6SM FEW250
     FM310900 27015G19KT P6SM BKN017 OVC250
     FM311800 27017G22KT P6SM FEW020 SCT250
     FM312100 28018G27KT P6SM FEW020
     FM010400 29018KT P6SM SKC=



000
FTUS46 KMTR 302300 CCA
TAFSFO
TAF COR
KSFO 302353Z 3100/0106 28025G30KT P6SM FEW250
     FM310400 27015G22KT P6SM FEW250
     FM310900 27015G19KT P6SM BKN017 OVC250
     FM311800 27017G22KT P6SM FEW020 SCT250
     FM312100 28018G27KT P6SM FEW020
     FM010400 29018KT P6SM SKC=



000
FTUS46 KMTR 302300 CCA
TAFSFO
TAF COR
KSFO 302353Z 3100/0106 28025G30KT P6SM FEW250
     FM310400 27015G22KT P6SM FEW250
     FM310900 27015G19KT P6SM BKN017 OVC250
     FM311800 27017G22KT P6SM FEW020 SCT250
     FM312100 28018G27KT P6SM FEW020
     FM010400 29018KT P6SM SKC=



000
FTUS46 KMTR 302300 RRA
TAFSFO
TAF
KSFO 302352Z 3100/0106 28025G30KT P6SM FEW250
     FM310400 27015G22KT P6SM FEW250
     FM310900 27015G19KT P6SM BKN017 OVC250
     FM312100 28018G27KT P6SM FEW020
     FM010400 29018KT P6SM SKC=



000
FTUS46 KMTR 302300 RRA
TAFOAK
TAF
KOAK 302352Z 3100/0106 27017G24KT P6SM FEW250
     FM310500 27011KT P6SM SCT250
     FM310900 28009KT P6SM SCT012
      TEMPO 3112/3116 BKN012
     FM311800 27017G25KT P6SM FEW015 SCT250
     FM010400 27017KT P6SM FEW015=



000
FTUS46 KMTR 302300 RRA
TAFMRY
TAF
KMRY 302352Z 3100/3124 27013KT P6SM SCT014 BKN250
      TEMPO 3100/3104 BKN014 OVC250
     FM310400 25007KT P6SM FEW011 SCT250
     FM311800 27011KT P6SM FEW250=



000
FTUS46 KMTR 302300 RRA
TAFSNS
TAF
KSNS 302352Z 3100/3124 28017G22KT P6SM FEW250
     FM310600 28010KT P6SM FEW250
     FM311000 00000KT P6SM SCT012
      TEMPO 3112/3116 BKN010
     FM311800 29017G21KT P6SM FEW250=



000
FTUS46 KMTR 302300 RRA
TAFSJC
TAF
KSJC 302352Z 3100/3124 30014KT P6SM SCT250
     FM310500 30008KT P6SM SCT250
     FM311000 VRB03KT P6SM SCT012 BKN250
     FM311800 31015G22KT P6SM FEW250=



000
FTUS46 KMTR 302300 RRA
TAFSTS
TAF
KSTS 302352Z 3100/3124 19012KT P6SM FEW250
     FM310400 29006KT P6SM FEW250
     FM310800 VRB04KT P6SM FEW250
     FM311700 32012KT P6SM SKC=



000
FTUS46 KMTR 302300 RRA
TAFLVK
TAF
KLVK 302352Z 3100/3124 27015KT P6SM FEW250
     FM310500 26009KT P6SM FEW250
     FM310900 VRB03KT P6SM FEW010
     FM311700 VRB03KT P6SM SCT010=



000
FTUS46 KMTR 302300 RRA
TAFSTS
TAF
KSTS 302352Z 3100/3124 19012KT P6SM FEW250
     FM310400 29006KT P6SM FEW250
     FM310800 VRB04KT P6SM FEW250
     FM311700 32012KT P6SM SKC=



000
FTUS46 KMTR 302300 RRA
TAFOAK
TAF
KOAK 302352Z 3100/0106 27017G24KT P6SM FEW250
     FM310500 27011KT P6SM SCT250
     FM310900 28009KT P6SM SCT012
      TEMPO 3112/3116 BKN012
     FM311800 27017G25KT P6SM FEW015 SCT250
     FM010400 27017KT P6SM FEW015=



000
FTUS46 KMTR 302300 RRA
TAFSJC
TAF
KSJC 302352Z 3100/3124 30014KT P6SM SCT250
     FM310500 30008KT P6SM SCT250
     FM311000 VRB03KT P6SM SCT012 BKN250
     FM311800 31015G22KT P6SM FEW250=



000
FTUS46 KMTR 302300 RRA
TAFMRY
TAF
KMRY 302352Z 3100/3124 27013KT P6SM SCT014 BKN250
      TEMPO 3100/3104 BKN014 OVC250
     FM310400 25007KT P6SM FEW011 SCT250
     FM311800 27011KT P6SM FEW250=



000
FTUS46 KMTR 302300 RRA
TAFSNS
TAF
KSNS 302352Z 3100/3124 28017G22KT P6SM FEW250
     FM310600 28010KT P6SM FEW250
     FM311000 00000KT P6SM SCT012
      TEMPO 3112/3116 BKN010
     FM311800 29017G21KT P6SM FEW250=



000
FTUS46 KMTR 302300 RRA
TAFLVK
TAF
KLVK 302352Z 3100/3124 27015KT P6SM FEW250
     FM310500 26009KT P6SM FEW250
     FM310900 VRB03KT P6SM FEW010
     FM311700 VRB03KT P6SM SCT010=



000
FTUS46 KMTR 302300 RRA
TAFSFO
TAF
KSFO 302352Z 3100/0106 28025G30KT P6SM FEW250
     FM310400 27015G22KT P6SM FEW250
     FM310900 27015G19KT P6SM BKN017 OVC250
     FM312100 28018G27KT P6SM FEW020
     FM010400 29018KT P6SM SKC=



000
FTUS46 KMTR 302100 AAA
TAFSFO
TAF AMD
KSFO 302101Z 3021/3124 28018G25KT P6SM FEW010 BKN180
     FM302300 28025G30KT P6SM SCT200
     FM310900 27015KT P6SM OVC008
     FM311800 28018G24KT P6SM SCT010=



000
FTUS46 KMTR 301700
TAFSFO
TAF
KSFO 301723Z 3018/3124 29015KT P6SM FEW010 SCT180
     FM302200 28025G30KT P6SM SCT200
     FM310900 27015KT P6SM OVC008
     FM311800 28018G24KT P6SM SCT010=



000
FTUS46 KMTR 301700
TAFMRY
TAF
KMRY 301723Z 3018/3118 28005KT P6SM SKC
     FM302000 27013KT P6SM FEW250
     FM310300 25007KT P6SM BKN007
     FM310900 24005KT P6SM OVC004=



000
FTUS46 KMTR 301700
TAFSTS
TAF
KSTS 301723Z 3018/3118 VRB03KT P6SM SCT200
     FM302200 19012KT P6SM FEW200
     FM310400 29006KT P6SM SKC
     FM310800 31003KT P6SM OVC007=



000
FTUS46 KMTR 301700
TAFSNS
TAF
KSNS 301723Z 3018/3118 09003KT P6SM SKC
     FM301900 27006KT P6SM SKC
     FM302200 28017KT P6SM SKC
     FM310600 28010KT P6SM SKC
     FM311000 00000KT P6SM OVC008=



000
FTUS46 KMTR 301700
TAFOAK
TAF
KOAK 301723Z 3018/3124 27008KT P6SM FEW200
     FM302100 27015KT P6SM FEW200
     FM310000 27017G24KT P6SM FEW200
     FM310500 27011KT P6SM SCT200
     FM310900 28009KT P6SM OVC008
     FM311800 27013KT P6SM SCT010=



000
FTUS46 KMTR 301700
TAFLVK
TAF
KLVK 301723Z 3018/3118 VRB03KT P6SM FEW150
     FM302100 27015KT P6SM FEW150
     FM310500 26009KT P6SM SKC
     FM310900 VRB03KT P6SM FEW010
     FM311200 VRB03KT P6SM BKN010
     FM311700 VRB03KT P6SM SCT010=



000
FTUS46 KMTR 301700
TAFSJC
TAF
KSJC 301723Z 3018/3118 00000KT P6SM FEW008 SCT080
     FM302000 31005KT P6SM SCT200
     FM302300 30014KT P6SM SCT200
     FM310500 30008KT P6SM SCT200
     FM311000 VRB03KT P6SM BKN010=



000
FTUS46 KMTR 301700
TAFSJC
TAF
KSJC 301723Z 3018/3118 00000KT P6SM FEW008 SCT080
     FM302000 31005KT P6SM SCT200
     FM302300 30014KT P6SM SCT200
     FM310500 30008KT P6SM SCT200
     FM311000 VRB03KT P6SM BKN010=



000
FTUS46 KMTR 301700
TAFMRY
TAF
KMRY 301723Z 3018/3118 28005KT P6SM SKC
     FM302000 27013KT P6SM FEW250
     FM310300 25007KT P6SM BKN007
     FM310900 24005KT P6SM OVC004=



000
FTUS46 KMTR 301700
TAFSFO
TAF
KSFO 301723Z 3018/3124 29015KT P6SM FEW010 SCT180
     FM302200 28025G30KT P6SM SCT200
     FM310900 27015KT P6SM OVC008
     FM311800 28018G24KT P6SM SCT010=



000
FTUS46 KMTR 301700
TAFOAK
TAF
KOAK 301723Z 3018/3124 27008KT P6SM FEW200
     FM302100 27015KT P6SM FEW200
     FM310000 27017G24KT P6SM FEW200
     FM310500 27011KT P6SM SCT200
     FM310900 28009KT P6SM OVC008
     FM311800 27013KT P6SM SCT010=



000
FTUS46 KMTR 301700
TAFSTS
TAF
KSTS 301723Z 3018/3118 VRB03KT P6SM SCT200
     FM302200 19012KT P6SM FEW200
     FM310400 29006KT P6SM SKC
     FM310800 31003KT P6SM OVC007=



000
FTUS46 KMTR 301700
TAFSNS
TAF
KSNS 301723Z 3018/3118 09003KT P6SM SKC
     FM301900 27006KT P6SM SKC
     FM302200 28017KT P6SM SKC
     FM310600 28010KT P6SM SKC
     FM311000 00000KT P6SM OVC008=



000
FTUS46 KMTR 301700
TAFLVK
TAF
KLVK 301723Z 3018/3118 VRB03KT P6SM FEW150
     FM302100 27015KT P6SM FEW150
     FM310500 26009KT P6SM SKC
     FM310900 VRB03KT P6SM FEW010
     FM311200 VRB03KT P6SM BKN010
     FM311700 VRB03KT P6SM SCT010=



000
FTUS46 KMTR 301500 AAA
TAFSFO
TAF AMD
KSFO 301501Z 3015/3118 29005KT P6SM FEW010
     FM302000 29015KT P6SM SCT200
     FM302200 28025G30KT P6SM SCT200
     FM310900 27015KT P6SM BKN008=



000
FTUS46 KMTR 301400 AAA
TAFSNS
TAF AMD
KSNS 301406Z 3014/3112 11006KT P6SM SKC
     FM301700 VRB03KT P6SM SKC
     FM301900 27006KT P6SM SKC
     FM302200 28017KT P6SM SKC
     FM310600 28010KT P6SM SKC
     FM311000 00000KT P6SM BKN008=



000
FTUS46 KMTR 301400 AAA
TAFSTS
TAF AMD
KSTS 301406Z 3014/3112 00000KT P6SM FEW250
     FM301600 VRB03KT P6SM FEW250
     FM302200 19012KT P6SM SKC
     FM310400 29006KT P6SM SKC
     FM310800 31003KT P6SM BKN007=



000
FTUS46 KMTR 301400 AAA
TAFSTS
TAF AMD
KSTS 301406Z 3014/3112 00000KT P6SM FEW250
     FM301600 VRB03KT P6SM FEW250
     FM302200 19012KT P6SM SKC
     FM310400 29006KT P6SM SKC
     FM310800 31003KT P6SM BKN007=



000
FTUS46 KMTR 301100
TAFSFO
TAF
KSFO 301123Z 3012/3118 29005KT P6SM FEW200
     FM302000 29015KT P6SM SCT200
     FM302200 28025G30KT P6SM SCT200
     FM310900 27015KT P6SM BKN008=



000
FTUS46 KMTR 301100
TAFMRY
TAF
KMRY 301123Z 3012/3112 10003KT 2SM BR BKN002
      TEMPO 3012/3014 1/2SM FG VV001
     FM301400 VRB03KT 2SM BR BKN002
      TEMPO 3014/3017 1/2SM FG OVC001
     FM301700 VRB04KT P6SM FEW250
     FM301900 27011KT P6SM FEW250
     FM310200 25015KT P6SM BKN007
     FM310900 24005KT P6SM SCT004
      TEMPO 3109/3112 1/2SM FG VV001=



000
FTUS46 KMTR 301100
TAFSJC
TAF
KSJC 301123Z 3012/3112 00000KT P6SM FEW200
     FM302000 31005KT P6SM SCT200
     FM302300 30014KT P6SM SCT200
     FM310500 30008KT P6SM SCT200
     FM311000 VRB03KT P6SM BKN010=



000
FTUS46 KMTR 301100
TAFSNS
TAF
KSNS 301123Z 3012/3112 12004KT P6SM SKC
     FM301300 12004KT 1SM BR OVC002
      TEMPO 3013/3015 VRB03KT 1/4SM FG VV001
     FM301700 VRB03KT P6SM SKC
     FM301900 27006KT P6SM SKC
     FM302200 28017KT P6SM SKC
     FM310600 28010KT P6SM SKC
     FM311000 00000KT P6SM BKN008=



000
FTUS46 KMTR 301100
TAFLVK
TAF
KLVK 301123Z 3012/3112 00000KT P6SM SKC
     FM301800 VRB03KT P6SM SKC
     FM302100 27015KT P6SM SKC
     FM310500 26009KT P6SM SKC
     FM311000 VRB03KT P6SM SKC=



000
FTUS46 KMTR 301100
TAFOAK
TAF
KOAK 301123Z 3012/3118 00000KT P6SM FEW200
     FM301800 26006KT P6SM SCT200
     FM302100 27015KT P6SM SCT200
     FM310000 27017G24KT P6SM SCT200
     FM310500 27011KT P6SM SCT200
     FM310900 28009KT P6SM BKN008=



000
FTUS46 KMTR 301100
TAFMRY
TAF
KMRY 301123Z 3012/3112 10003KT 2SM BR BKN002
      TEMPO 3012/3014 1/2SM FG VV001
     FM301400 VRB03KT 2SM BR BKN002
      TEMPO 3014/3017 1/2SM FG OVC001
     FM301700 VRB04KT P6SM FEW250
     FM301900 27011KT P6SM FEW250
     FM310200 25015KT P6SM BKN007
     FM310900 24005KT P6SM SCT004
      TEMPO 3109/3112 1/2SM FG VV001=



000
FTUS46 KMTR 301100
TAFSNS
TAF
KSNS 301123Z 3012/3112 12004KT P6SM SKC
     FM301300 12004KT 1SM BR OVC002
      TEMPO 3013/3015 VRB03KT 1/4SM FG VV001
     FM301700 VRB03KT P6SM SKC
     FM301900 27006KT P6SM SKC
     FM302200 28017KT P6SM SKC
     FM310600 28010KT P6SM SKC
     FM311000 00000KT P6SM BKN008=



000
FTUS46 KMTR 301100
TAFSTS
TAF
KSTS 301123Z 3012/3112 00000KT P6SM FEW250
      TEMPO 3014/3016 00000KT 1/2SM FG BKN007
     FM301600 VRB03KT P6SM SKC
     FM302200 19012KT P6SM SKC
     FM310400 29006KT P6SM SKC
     FM310800 31003KT P6SM BKN007=



000
FTUS46 KMTR 301100
TAFSJC
TAF
KSJC 301123Z 3012/3112 00000KT P6SM FEW200
     FM302000 31005KT P6SM SCT200
     FM302300 30014KT P6SM SCT200
     FM310500 30008KT P6SM SCT200
     FM311000 VRB03KT P6SM BKN010=



000
FTUS46 KMTR 301100
TAFLVK
TAF
KLVK 301123Z 3012/3112 00000KT P6SM SKC
     FM301800 VRB03KT P6SM SKC
     FM302100 27015KT P6SM SKC
     FM310500 26009KT P6SM SKC
     FM311000 VRB03KT P6SM SKC=



000
FTUS46 KMTR 301100
TAFSTS
TAF
KSTS 301123Z 3012/3112 00000KT P6SM FEW250
      TEMPO 3014/3016 00000KT 1/2SM FG BKN007
     FM301600 VRB03KT P6SM SKC
     FM302200 19012KT P6SM SKC
     FM310400 29006KT P6SM SKC
     FM310800 31003KT P6SM BKN007=



000
FTUS46 KMTR 301100
TAFSFO
TAF
KSFO 301123Z 3012/3118 29005KT P6SM FEW200
     FM302000 29015KT P6SM SCT200
     FM302200 28025G30KT P6SM SCT200
     FM310900 27015KT P6SM BKN008=



000
FTUS46 KMTR 301100
TAFOAK
TAF
KOAK 301123Z 3012/3118 00000KT P6SM FEW200
     FM301800 26006KT P6SM SCT200
     FM302100 27015KT P6SM SCT200
     FM310000 27017G24KT P6SM SCT200
     FM310500 27011KT P6SM SCT200
     FM310900 28009KT P6SM BKN008=



000
FTUS46 KMTR 301000 AAA
TAFMRY
TAF AMD
KMRY 301024Z 3010/3106 10003KT 2SM BR BKN002
      TEMPO 3010/3014 1/2SM FG VV001
     FM301400 VRB03KT 2SM BR BKN002
      TEMPO 3014/3017 1/2SM FG OVC001
     FM301700 VRB04KT P6SM FEW250
     FM301900 27011KT P6SM FEW250
     FM310200 25015KT P6SM BKN007=



000
FTUS46 KMTR 300900 AAA
TAFSFO
TAF AMD
KSFO 300945Z 3010/3112 29007KT P6SM SKC
     FM301400 29005KT P6SM SCT150
     FM302000 29015KT P6SM SCT200
     FM302200 28025G30KT P6SM SCT200
     FM310900 27014KT P6SM OVC050=



000
FTUS46 KMTR 300500
TAFSFO
TAF
KSFO 300520Z 3006/3112 28010KT P6SM FEW150
     FM301400 29005KT P6SM SCT150
     FM302000 29015KT P6SM SCT200
     FM302200 28025G30KT P6SM SCT200
     FM310900 27014KT P6SM OVC050=



000
FTUS46 KMTR 300500
TAFLVK
TAF
KLVK 300520Z 3006/3106 VRB03KT P6SM SKC
     FM300900 00000KT P6SM SKC
     FM301800 VRB03KT P6SM SKC
     FM302100 27015KT P6SM SKC=



000
FTUS46 KMTR 300500
TAFSTS
TAF
KSTS 300520Z 3006/3106 00000KT P6SM FEW250
      TEMPO 3014/3016 00000KT 1/2SM FG BKN007
     FM301600 VRB03KT P6SM SKC
     FM302200 19012KT P6SM SKC=



000
FTUS46 KMTR 300500
TAFSFO
TAF
KSFO 300520Z 3006/3112 28010KT P6SM FEW150
     FM301400 29005KT P6SM SCT150
     FM302000 29015KT P6SM SCT200
     FM302200 28025G30KT P6SM SCT200
     FM310900 27014KT P6SM OVC050=



000
FTUS46 KMTR 300500
TAFSNS
TAF
KSNS 300520Z 3006/3106 31006KT P6SM SKC
     FM301100 VRB04KT 6SM BR BKN007
     FM301300 12004KT 1SM BR OVC002
      TEMPO 3013/3015 VRB03KT 1/4SM FG VV001
     FM301700 VRB03KT P6SM SKC
     FM301900 27006KT P6SM SKC
     FM302200 28017KT P6SM SKC=



000
FTUS46 KMTR 300500
TAFOAK
TAF
KOAK 300520Z 3006/3112 29006KT P6SM FEW200
     FM301200 VRB03KT P6SM FEW200
     FM301800 26006KT P6SM SCT200
     FM302100 27015KT P6SM SCT200
     FM310000 27017G24KT P6SM SCT200
     FM310500 27011KT P6SM SCT200=



000
FTUS46 KMTR 300500
TAFSTS
TAF
KSTS 300520Z 3006/3106 00000KT P6SM FEW250
      TEMPO 3014/3016 00000KT 1/2SM FG BKN007
     FM301600 VRB03KT P6SM SKC
     FM302200 19012KT P6SM SKC=



000
FTUS46 KMTR 300500
TAFSJC
TAF
KSJC 300520Z 3006/3106 VRB04KT P6SM FEW200
     FM300800 00000KT P6SM FEW200
     FM302000 31005KT P6SM SCT200
     FM302300 30012KT P6SM SCT200
     FM310500 30008KT P6SM SCT200=



000
FTUS46 KMTR 300500
TAFSNS
TAF
KSNS 300520Z 3006/3106 31006KT P6SM SKC
     FM301100 VRB04KT 6SM BR BKN007
     FM301300 12004KT 1SM BR OVC002
      TEMPO 3013/3015 VRB03KT 1/4SM FG VV001
     FM301700 VRB03KT P6SM SKC
     FM301900 27006KT P6SM SKC
     FM302200 28017KT P6SM SKC=



000
FTUS46 KMTR 300500
TAFSJC
TAF
KSJC 300520Z 3006/3106 VRB04KT P6SM FEW200
     FM300800 00000KT P6SM FEW200
     FM302000 31005KT P6SM SCT200
     FM302300 30012KT P6SM SCT200
     FM310500 30008KT P6SM SCT200=



000
FTUS46 KMTR 300500
TAFLVK
TAF
KLVK 300520Z 3006/3106 VRB03KT P6SM SKC
     FM300900 00000KT P6SM SKC
     FM301800 VRB03KT P6SM SKC
     FM302100 27015KT P6SM SKC=



000
FTUS46 KMTR 300500
TAFMRY
TAF
KMRY 300520Z 3006/3106 VRB03KT P6SM SKC
      TEMPO 3010/3014 BKN007
     FM301400 VRB03KT 3SM BR BKN003
      TEMPO 3014/3017 1SM BR OVC001
     FM301700 VRB04KT P6SM FEW250
     FM301900 27011KT P6SM FEW250
     FM310200 25015KT P6SM BKN007=



000
FTUS46 KMTR 300500
TAFOAK
TAF
KOAK 300520Z 3006/3112 29006KT P6SM FEW200
     FM301200 VRB03KT P6SM FEW200
     FM301800 26006KT P6SM SCT200
     FM302100 27015KT P6SM SCT200
     FM310000 27017G24KT P6SM SCT200
     FM310500 27011KT P6SM SCT200=



000
FTUS46 KMTR 300500
TAFMRY
TAF
KMRY 300520Z 3006/3106 VRB03KT P6SM SKC
      TEMPO 3010/3014 BKN007
     FM301400 VRB03KT 3SM BR BKN003
      TEMPO 3014/3017 1SM BR OVC001
     FM301700 VRB04KT P6SM FEW250
     FM301900 27011KT P6SM FEW250
     FM310200 25015KT P6SM BKN007=



000
FTUS46 KMTR 292300
TAFSNS
TAF
KSNS 292338Z 3000/3024 29013KT P6SM SKC
     FM300200 29009KT P6SM SKC
     FM301100 VRB04KT 6SM BR BKN007
     FM301300 12004KT 1SM BR OVC002
      TEMPO 3013/3015 VRB03KT 1/4SM FG VV001
     FM301700 VRB03KT P6SM SKC
     FM301900 27006KT P6SM SKC
     FM302200 28017KT P6SM SKC=



000
FTUS46 KMTR 292300
TAFSJC
TAF
KSJC 292338Z 3000/3024 30011KT P6SM FEW220
     FM300500 30006KT P6SM FEW250
     FM300800 00000KT P6SM FEW250
     FM302000 31005KT P6SM SCT250
     FM302300 30011KT P6SM SCT250=



000
FTUS46 KMTR 292300
TAFLVK
TAF
KLVK 292338Z 3000/3024 28010KT P6SM SKC
     FM300300 VRB03KT P6SM SKC
     FM300900 00000KT P6SM SKC
     FM301800 VRB03KT P6SM SKC
     FM302100 27015KT P6SM SKC=



000
FTUS46 KMTR 292300
TAFSTS
TAF
KSTS 292338Z 3000/3024 18008KT P6SM SKC
     FM300300 VRB03KT P6SM FEW250
     FM301000 00000KT P6SM FEW250
      TEMPO 3014/3016 00000KT 1/2SM FG BKN007
     FM301600 VRB03KT P6SM SKC
     FM302200 19010KT P6SM SKC=



000
FTUS46 KMTR 292300
TAFSFO
TAF
KSFO 292338Z 3000/3106 28015KT P6SM FEW200
      TEMPO 3000/3004 28020G25KT
     FM300700 28010KT P6SM FEW200
     FM301400 29005KT P6SM SCT250
     FM302000 29015KT P6SM SCT250
     FM302200 28024KT P6SM SCT250=



000
FTUS46 KMTR 292300
TAFOAK
TAF
KOAK 292338Z 3000/3106 29013KT P6SM FEW250
     FM300300 28007KT P6SM FEW250
     FM301200 VRB03KT P6SM FEW250
     FM301800 26006KT P6SM SCT250
     FM302100 27015KT P6SM SCT250=



000
FTUS46 KMTR 292300
TAFMRY
TAF
KMRY 292338Z 3000/3024 29008KT P6SM SKC
     FM300300 22005KT P6SM SKC
      TEMPO 3010/3014 VRB03KT P6SM BKN007
     FM301400 VRB03KT 3SM BR BKN003
      TEMPO 3014/3017 VRB03KT 1SM BR OVC001
     FM301700 VRB04KT P6SM FEW250
     FM301900 27011KT P6SM FEW250=



000
FTUS46 KMTR 292300
TAFLVK
TAF
KLVK 292338Z 3000/3024 28010KT P6SM SKC
     FM300300 VRB03KT P6SM SKC
     FM300900 00000KT P6SM SKC
     FM301800 VRB03KT P6SM SKC
     FM302100 27015KT P6SM SKC=



000
FTUS46 KMTR 292300
TAFSFO
TAF
KSFO 292338Z 3000/3106 28015KT P6SM FEW200
      TEMPO 3000/3004 28020G25KT
     FM300700 28010KT P6SM FEW200
     FM301400 29005KT P6SM SCT250
     FM302000 29015KT P6SM SCT250
     FM302200 28024KT P6SM SCT250=



000
FTUS46 KMTR 292300
TAFSJC
TAF
KSJC 292338Z 3000/3024 30011KT P6SM FEW220
     FM300500 30006KT P6SM FEW250
     FM300800 00000KT P6SM FEW250
     FM302000 31005KT P6SM SCT250
     FM302300 30011KT P6SM SCT250=



000
FTUS46 KMTR 292300
TAFSTS
TAF
KSTS 292338Z 3000/3024 18008KT P6SM SKC
     FM300300 VRB03KT P6SM FEW250
     FM301000 00000KT P6SM FEW250
      TEMPO 3014/3016 00000KT 1/2SM FG BKN007
     FM301600 VRB03KT P6SM SKC
     FM302200 19010KT P6SM SKC=



000
FTUS46 KMTR 292300
TAFSNS
TAF
KSNS 292338Z 3000/3024 29013KT P6SM SKC
     FM300200 29009KT P6SM SKC
     FM301100 VRB04KT 6SM BR BKN007
     FM301300 12004KT 1SM BR OVC002
      TEMPO 3013/3015 VRB03KT 1/4SM FG VV001
     FM301700 VRB03KT P6SM SKC
     FM301900 27006KT P6SM SKC
     FM302200 28017KT P6SM SKC=



000
FTUS46 KMTR 292300
TAFOAK
TAF
KOAK 292338Z 3000/3106 29013KT P6SM FEW250
     FM300300 28007KT P6SM FEW250
     FM301200 VRB03KT P6SM FEW250
     FM301800 26006KT P6SM SCT250
     FM302100 27015KT P6SM SCT250=



000
FTUS46 KMTR 292300
TAFMRY
TAF
KMRY 292338Z 3000/3024 29008KT P6SM SKC
     FM300300 22005KT P6SM SKC
      TEMPO 3010/3014 VRB03KT P6SM BKN007
     FM301400 VRB03KT 3SM BR BKN003
      TEMPO 3014/3017 VRB03KT 1SM BR OVC001
     FM301700 VRB04KT P6SM FEW250
     FM301900 27011KT P6SM FEW250=



000
FTUS46 KMTR 292100 AAA
TAFSFO
TAF AMD
KSFO 292102Z 2921/3024 30014KT P6SM FEW200
     FM292300 28021G26KT P6SM FEW250
     FM300600 28010KT P6SM FEW250
     FM301300 27009KT P6SM BKN010
     FM301700 29006KT P6SM BKN250=



000
FTUS46 KMTR 291700
TAFSNS
TAF
KSNS 291736Z 2918/3018 VRB04KT P6SM FEW250
     FM292100 28010KT P6SM FEW250
     FM300300 29009KT P6SM FEW250
     FM301000 VRB04KT 6SM BR BKN007
     FM301300 14004KT 2SM BR OVC003
     FM301700 15005KT P6SM SCT003=



000
FTUS46 KMTR 291700
TAFSJC
TAF
KSJC 291736Z 2918/3018 31004KT P6SM FEW200
     FM292100 31012KT P6SM FEW250
     FM300500 30006KT P6SM FEW250
     FM301200 00000KT P6SM BKN250=



000
FTUS46 KMTR 291700
TAFMRY
TAF
KMRY 291736Z 2918/3018 25003KT P6SM SCT003
     FM292000 29009KT P6SM FEW250
     FM300300 21004KT P6SM FEW250
     FM301000 VRB03KT 6SM BR BKN007
     FM301400 26003KT 2SM BR OVC003
     FM301700 27004KT P6SM SCT003=



000
FTUS46 KMTR 291700
TAFLVK
TAF
KLVK 291736Z 2918/3018 27003KT P6SM FEW250
     FM292100 32009KT P6SM FEW250
     FM300300 29006KT P6SM FEW250
     FM300900 VRB04KT P6SM SCT250=



000
FTUS46 KMTR 291700
TAFSFO
TAF
KSFO 291736Z 2918/3024 VRB04KT P6SM FEW200
     FM292000 30012KT P6SM FEW250
     FM292300 28021G26KT P6SM FEW250
     FM300600 28010KT P6SM FEW250
     FM301300 27009KT P6SM BKN010
     FM301700 29006KT P6SM BKN250=



000
FTUS46 KMTR 291700
TAFOAK
TAF
KOAK 291736Z 2918/3024 28004KT P6SM FEW250
     FM292300 28012KT P6SM FEW250
     FM300300 28007KT P6SM FEW250
     FM301200 28003KT P6SM BKN010
     FM301600 26005KT P6SM BKN250=



000
FTUS46 KMTR 291700
TAFSTS
TAF
KSTS 291736Z 2918/3018 VRB03KT P6SM SKC
     FM292000 18005KT P6SM FEW250
     FM300300 VRB03KT P6SM FEW250
     FM300900 00000KT 1 1/2SM BR SKC
     FM301400 00000KT 1/2SM FG BKN007
     FM301700 VRB03KT 6SM BR SCT007=



000
FTUS46 KMTR 291700
TAFSTS
TAF
KSTS 291736Z 2918/3018 VRB03KT P6SM SKC
     FM292000 18005KT P6SM FEW250
     FM300300 VRB03KT P6SM FEW250
     FM300900 00000KT 1 1/2SM BR SKC
     FM301400 00000KT 1/2SM FG BKN007
     FM301700 VRB03KT 6SM BR SCT007=



000
FTUS46 KMTR 291700
TAFOAK
TAF
KOAK 291736Z 2918/3024 28004KT P6SM FEW250
     FM292300 28012KT P6SM FEW250
     FM300300 28007KT P6SM FEW250
     FM301200 28003KT P6SM BKN010
     FM301600 26005KT P6SM BKN250=



000
FTUS46 KMTR 291700
TAFLVK
TAF
KLVK 291736Z 2918/3018 27003KT P6SM FEW250
     FM292100 32009KT P6SM FEW250
     FM300300 29006KT P6SM FEW250
     FM300900 VRB04KT P6SM SCT250=



000
FTUS46 KMTR 291700
TAFSNS
TAF
KSNS 291736Z 2918/3018 VRB04KT P6SM FEW250
     FM292100 28010KT P6SM FEW250
     FM300300 29009KT P6SM FEW250
     FM301000 VRB04KT 6SM BR BKN007
     FM301300 14004KT 2SM BR OVC003
     FM301700 15005KT P6SM SCT003=



000
FTUS46 KMTR 291700
TAFSJC
TAF
KSJC 291736Z 2918/3018 31004KT P6SM FEW200
     FM292100 31012KT P6SM FEW250
     FM300500 30006KT P6SM FEW250
     FM301200 00000KT P6SM BKN250=



000
FTUS46 KMTR 291700
TAFMRY
TAF
KMRY 291736Z 2918/3018 25003KT P6SM SCT003
     FM292000 29009KT P6SM FEW250
     FM300300 21004KT P6SM FEW250
     FM301000 VRB03KT 6SM BR BKN007
     FM301400 26003KT 2SM BR OVC003
     FM301700 27004KT P6SM SCT003=



000
FTUS46 KMTR 291700
TAFSFO
TAF
KSFO 291736Z 2918/3024 VRB04KT P6SM FEW200
     FM292000 30012KT P6SM FEW250
     FM292300 28021G26KT P6SM FEW250
     FM300600 28010KT P6SM FEW250
     FM301300 27009KT P6SM BKN010
     FM301700 29006KT P6SM BKN250=



000
FTUS46 KMTR 291500 AAB
TAFMRY
TAF AMD
KMRY 291558Z 2916/3012 25003KT P6SM FEW003
      TEMPO 2916/2917 3SM BR BKN003
     FM292000 29009KT P6SM FEW250
     FM300300 21004KT P6SM FEW250=



000
FTUS46 KMTR 291500 AAA
TAFSFO
TAF AMD
KSFO 291501Z 2915/3018 VRB04KT P6SM SKC
     FM292000 30012KT P6SM FEW250
     FM292300 28021G26KT P6SM FEW250
     FM300500 28015KT P6SM FEW250
     FM300700 28010KT P6SM FEW250
     FM301200 27009KT P6SM BKN010=



000
FTUS46 KMTR 291500 AAA
TAFSFO
TAF AMD
KSFO 291501Z 2915/3018 VRB04KT P6SM SKC
     FM292000 30012KT P6SM FEW250
     FM292300 28021G26KT P6SM FEW250
     FM300500 28015KT P6SM FEW250
     FM300700 28010KT P6SM FEW250
     FM301200 27009KT P6SM BKN010=



000
FTUS46 KMTR 291300 AAC
TAFSNS
TAF AMD
KSNS 291332Z 2914/3012 00000KT 4SM BR OVC004
     FM291600 VRB03KT 6SM BR BKN006
     FM291700 VRB04KT P6SM FEW250
     FM292100 28010KT P6SM FEW250
     FM300300 29009KT P6SM FEW250=



000
FTUS46 KMTR 291300 AAB
TAFSNS
TAF AMD
KSNS 291317Z 2913/3012 VRB03KT 4SM BR OVC006
     FM291700 VRB04KT P6SM FEW250
     FM292100 28010KT P6SM FEW250
     FM300300 29009KT P6SM FEW250=



000
FTUS46 KMTR 291300 AAB
TAFSNS
TAF AMD
KSNS 291317Z 2913/3012 VRB03KT 4SM BR OVC006
     FM291700 VRB04KT P6SM FEW250
     FM292100 28010KT P6SM FEW250
     FM300300 29009KT P6SM FEW250=



000
FTUS46 KMTR 291300 AAA
TAFMRY
TAF AMD
KMRY 291315Z 2913/3012 21003KT P6SM FEW005
      TEMPO 2913/2916 BKN007
     FM292000 29009KT P6SM FEW250
     FM300300 21004KT P6SM FEW250=



000
FTUS46 KMTR 291300 AAA
TAFMRY
TAF AMD
KMRY 291315Z 2913/3012 21003KT P6SM FEW005
      TEMPO 2913/2916 BKN007
     FM292000 29009KT P6SM FEW250
     FM300300 21004KT P6SM FEW250=



000
FTUS46 KMTR 291200 AAA
TAFSNS
TAF AMD
KSNS 291218Z 2912/3012 31003KT P6SM OVC008
     FM291700 VRB04KT P6SM FEW250
     FM292100 28010KT P6SM FEW250
     FM300300 29009KT P6SM FEW250=



000
FTUS46 KMTR 291200 AAA
TAFSNS
TAF AMD
KSNS 291218Z 2912/3012 31003KT P6SM OVC008
     FM291700 VRB04KT P6SM FEW250
     FM292100 28010KT P6SM FEW250
     FM300300 29009KT P6SM FEW250=



000
FTUS46 KMTR 291100 RRA
TAFMRY
TAF
KMRY 291141Z 2912/3012 20004KT P6SM BKN007
     FM291700 19009KT P6SM FEW250
     FM300300 24004KT P6SM FEW250=



000
FTUS46 KMTR 291100 RRA
TAFLVK
TAF
KLVK 291141Z 2912/3012 00000KT P6SM SKC
     FM291800 27003KT P6SM FEW250
     FM292100 32009KT P6SM FEW250
     FM300400 29006KT P6SM FEW250=



000
FTUS46 KMTR 291100 RRA
TAFSJC
TAF
KSJC 291141Z 2912/3012 VRB04KT P6SM SKC
     FM291700 31006KT P6SM FEW250
     FM292100 31012KT P6SM FEW250
     FM300500 30006KT P6SM FEW250=



000
FTUS46 KMTR 291100 RRA
TAFSNS
TAF
KSNS 291141Z 2912/3012 VRB03KT P6SM SCT006 BKN010
     FM291700 VRB04KT P6SM FEW250
     FM292100 28010KT P6SM FEW250
     FM300300 29009KT P6SM FEW250=



000
FTUS46 KMTR 291100 RRA
TAFSFO
TAF
KSFO 291141Z 2912/3018 29009KT P6SM SKC
     FM292000 30012KT P6SM FEW250
     FM292300 28021G26KT P6SM FEW250
     FM300500 28015KT P6SM FEW250
     FM300700 28010KT P6SM FEW250
     FM301200 27009KT P6SM BKN010=



000
FTUS46 KMTR 291100 RRA
TAFSTS
TAF
KSTS 291141Z 2912/3012 VRB03KT P6SM SKC
     FM292000 18005KT P6SM FEW250
     FM300300 VRB03KT P6SM FEW250
     FM300900 00000KT 1 1/2SM BR SKC=



000
FTUS46 KMTR 291100 RRA
TAFOAK
TAF
KOAK 291141Z 2912/3018 09003KT P6SM SKC
     FM291800 28006KT P6SM FEW250
     FM292300 28012KT P6SM FEW250
     FM300300 28007KT P6SM FEW250
     FM301100 28003KT P6SM BKN010=



000
FTUS46 KMTR 291100 RRA
TAFMRY
TAF
KMRY 291141Z 2912/3012 20004KT P6SM BKN007
     FM291700 19009KT P6SM FEW250
     FM300300 24004KT P6SM FEW250=



000
FTUS46 KMTR 291100 RRA
TAFSNS
TAF
KSNS 291141Z 2912/3012 VRB03KT P6SM SCT006 BKN010
     FM291700 VRB04KT P6SM FEW250
     FM292100 28010KT P6SM FEW250
     FM300300 29009KT P6SM FEW250=



000
FTUS46 KMTR 291100 RRA
TAFOAK
TAF
KOAK 291141Z 2912/3018 09003KT P6SM SKC
     FM291800 28006KT P6SM FEW250
     FM292300 28012KT P6SM FEW250
     FM300300 28007KT P6SM FEW250
     FM301100 28003KT P6SM BKN010=



000
FTUS46 KMTR 291100 RRA
TAFSTS
TAF
KSTS 291141Z 2912/3012 VRB03KT P6SM SKC
     FM292000 18005KT P6SM FEW250
     FM300300 VRB03KT P6SM FEW250
     FM300900 00000KT 1 1/2SM BR SKC=



000
FTUS46 KMTR 291100 RRA
TAFSJC
TAF
KSJC 291141Z 2912/3012 VRB04KT P6SM SKC
     FM291700 31006KT P6SM FEW250
     FM292100 31012KT P6SM FEW250
     FM300500 30006KT P6SM FEW250=



000
FTUS46 KMTR 291100 RRA
TAFSFO
TAF
KSFO 291141Z 2912/3018 29009KT P6SM SKC
     FM292000 30012KT P6SM FEW250
     FM292300 28021G26KT P6SM FEW250
     FM300500 28015KT P6SM FEW250
     FM300700 28010KT P6SM FEW250
     FM301200 27009KT P6SM BKN010=



000
FTUS46 KMTR 291100 RRA
TAFLVK
TAF
KLVK 291141Z 2912/3012 00000KT P6SM SKC
     FM291800 27003KT P6SM FEW250
     FM292100 32009KT P6SM FEW250
     FM300400 29006KT P6SM FEW250=



000
FTUS46 KMTR 291100 AAA
TAFMRY
TAF AMD
KMRY 291106Z 2911/3006 20004KT P6SM BKN007
     FM291700 19009KT P6SM FEW250
     FM300300 24004KT P6SM FEW250=



000
FTUS46 KMTR 290900 AAB
TAFSFO
TAF AMD
KSFO 290933Z 2910/3012 29008KT P6SM SKC
     FM292100 28017KT P6SM FEW250
     FM300300 28010KT P6SM FEW250=



000
FTUS46 KMTR 290700 AAA
TAFSFO
TAF AMD
KSFO 290744Z 2908/3012 30007KT P6SM SKC
     FM292100 28017KT P6SM FEW250
     FM300300 28010KT P6SM FEW250=



000
FTUS46 KMTR 290700 AAA
TAFSTS
TAF AMD
KSTS 290743Z 2908/3006 VRB04KT P6SM SKC
     FM291800 19004KT P6SM FEW250
     FM300300 VRB03KT P6SM FEW250=



000
FTUS46 KMTR 290500 RRA
TAFSJC
TAF
KSJC 290544Z 2906/3006 31007KT P6SM SKC
     FM290800 VRB03KT P6SM SKC
     FM291800 32012KT P6SM FEW250
     FM300300 30009KT P6SM FEW250=



000
FTUS46 KMTR 290500 RRA
TAFSNS
TAF
KSNS 290544Z 2906/3006 28011KT P6SM SKC
     FM290800 VRB03KT P6SM SKC
     FM291800 30012KT P6SM FEW250
     FM300300 29009KT P6SM FEW250=



000
FTUS46 KMTR 290500 RRA
TAFLVK
TAF
KLVK 290544Z 2906/3006 33006KT P6SM SKC
     FM291800 21009KT P6SM FEW250
     FM292100 32009KT P6SM FEW250
     FM300400 29009KT P6SM FEW250=



000
FTUS46 KMTR 290500 RRA
TAFSTS
TAF
KSTS 290544Z 2906/3006 36014G19KT P6SM SKC
     FM291000 VRB04KT P6SM SKC
     FM291800 19004KT P6SM FEW250
     FM300300 VRB03KT P6SM FEW250=



000
FTUS46 KMTR 290500 RRA
TAFMRY
TAF
KMRY 290544Z 2906/3006 24004KT P6SM SKC
     FM290800 14004KT P6SM SKC
     FM291800 19009KT P6SM FEW250
     FM300300 24004KT P6SM FEW250=



000
FTUS46 KMTR 290500 RRA
TAFSFO
TAF
KSFO 290544Z 2906/3012 28015G25KT P6SM FEW250
     FM290800 28012KT P6SM SKC
     FM291000 28007KT P6SM SKC
     FM292100 28017KT P6SM FEW250
     FM300300 28010KT P6SM FEW250=



000
FTUS46 KMTR 290500 RRA
TAFSTS
TAF
KSTS 290544Z 2906/3006 36014G19KT P6SM SKC
     FM291000 VRB04KT P6SM SKC
     FM291800 19004KT P6SM FEW250
     FM300300 VRB03KT P6SM FEW250=



000
FTUS46 KMTR 290500 RRA
TAFOAK
TAF
KOAK 290544Z 2906/3012 28010KT P6SM SKC
     FM290800 30005KT P6SM SKC
     FM292100 28011KT P6SM FEW250
     FM300300 28007KT P6SM FEW250=



000
FTUS46 KMTR 290500 RRA
TAFSJC
TAF
KSJC 290544Z 2906/3006 31007KT P6SM SKC
     FM290800 VRB03KT P6SM SKC
     FM291800 32012KT P6SM FEW250
     FM300300 30009KT P6SM FEW250=



000
FTUS46 KMTR 290500 RRA
TAFMRY
TAF
KMRY 290544Z 2906/3006 24004KT P6SM SKC
     FM290800 14004KT P6SM SKC
     FM291800 19009KT P6SM FEW250
     FM300300 24004KT P6SM FEW250=



000
FTUS46 KMTR 290500 RRA
TAFSFO
TAF
KSFO 290544Z 2906/3012 28015G25KT P6SM FEW250
     FM290800 28012KT P6SM SKC
     FM291000 28007KT P6SM SKC
     FM292100 28017KT P6SM FEW250
     FM300300 28010KT P6SM FEW250=



000
FTUS46 KMTR 290500 RRA
TAFSNS
TAF
KSNS 290544Z 2906/3006 28011KT P6SM SKC
     FM290800 VRB03KT P6SM SKC
     FM291800 30012KT P6SM FEW250
     FM300300 29009KT P6SM FEW250=



000
FTUS46 KMTR 290500 RRA
TAFLVK
TAF
KLVK 290544Z 2906/3006 33006KT P6SM SKC
     FM291800 21009KT P6SM FEW250
     FM292100 32009KT P6SM FEW250
     FM300400 29009KT P6SM FEW250=



000
FTUS46 KMTR 290500 RRA
TAFOAK
TAF
KOAK 290544Z 2906/3012 28010KT P6SM SKC
     FM290800 30005KT P6SM SKC
     FM292100 28011KT P6SM FEW250
     FM300300 28007KT P6SM FEW250=



000
FTUS46 KMTR 290400 AAA
TAFSTS
TAF AMD
KSTS 290446Z 2905/2924 36014G19KT P6SM SKC
     FM291000 VRB04KT P6SM SKC
     FM291800 19004KT P6SM FEW250=



000
FTUS46 KMTR 290400 AAA
TAFSTS
TAF AMD
KSTS 290446Z 2905/2924 36014G19KT P6SM SKC
     FM291000 VRB04KT P6SM SKC
     FM291800 19004KT P6SM FEW250=



000
FTUS46 KMTR 290400 AAB
TAFSFO
TAF AMD
KSFO 290446Z 2905/3006 28015G25KT P6SM FEW250
     FM290800 28012KT P6SM SKC
     FM291000 28007KT P6SM SKC
     FM292100 28017KT P6SM FEW250
     FM300300 28010KT P6SM FEW250=



000
FTUS46 KMTR 290300 AAA
TAFSFO
TAF AMD
KSFO 290301Z 2903/3006 28015G25KT P6SM FEW250
     FM290400 28012KT P6SM SKC
     FM291000 28007KT P6SM SKC
     FM292100 28017KT P6SM FEW250
     FM300300 28010KT P6SM FEW250=



    US Dept of Commerce
    National Oceanic and Atmospheric Administration
    National Weather Service
    1325 East West Highway
    Silver Spring, MD 20910
    Page Author: NWS Internet Services Team
Disclaimer
Information Quality
Credits
Glossary
Privacy Policy
Freedom of Information Act (FOIA)
About Us
Career Opportunities